Baxter, WV (26560)

6:36 AM EDT on July 04, 2015 (GMT -0400)
East Fairmont | | Change Station
CLOSE
Current Station
Personal Weather Station
Location: Fairmont, WV
Elevation: 1004 ft
Nearby Weather Stations

Elev 1004 ft 39.48 °N, 80.13 °W | Updated 58 seconds ago

Overcast
Overcast
66.7 °F
Feels Like 66.7 °F
N
0.0
Wind Variable Wind from West

Today
High -- | Low -- °F
--% Chance of Precip.
Yesterday
High -- | Low -- °F
Precip. -- in
5:58 AM 8:51 PM
Waning Gibbous, 93% visible
Pressure 29.86 in
Visibility 9.0 miles
Clouds Overcast 900 ft
Dew Point 66 °F
Humidity 99%
Rainfall 0.31 in
Snow Depth Not available.
UV 0 out of 12
Pollen .60 out of 12
Air Quality Not available.
Flu Activity Not available.
METAR KMGW 040953Z AUTO 20003KT 9SM OVC009 20/18 A2988 RMK AO2 RAE14 CIG 006V010 SLP111 P0003 T02000178 TSNO

More Conditions Fewer Conditions

Pressure 29.86 in
Visibility 9.0 miles
Clouds Overcast 900 ft
Dew Point 66 °F
Humidity 99%
Rainfall 0.31 in
Snow Depth Not available.
UV 0 out of 12
Pollen .60 out of 12
Air Quality Not available.
Flu Activity Not available.
METAR KMGW 040953Z AUTO 20003KT 9SM OVC009 20/18 A2988 RMK AO2 RAE14 CIG 006V010 SLP111 P0003 T02000178 TSNO

More Conditions Fewer Conditions

10-Day Weather Forecast

×

Almanac

Astronomy

Jul. 04, 2015 Rise Set
Actual Time
Civil Twilight
Nautical Twilight
Astronomical Twilight
Moon
Length of Visible Light
Length of Day
Tomorrow will be .
, % of the Moon is Illuminated

Today's Extremes

State Highs State Lows

Community

WunderPhotos

Upload Photos

1,834,935 photos uploaded!

WunderBlogs® & News

Nearby

Air Quality

  Air Quality AQ Index Pollutant
Not available.

Snow Depth

Station Depth Elevation

Earthquake Activity

City Distance Mag. Time & Date
Minimum magnitude displayed is 2.5.

Coastal Water Temperatures

Place Temperature

Stations

Nearby Weather Stations

Station Location Temp. Windchill Dew Point Humidity Wind Precip. Elev Updated Type